sensor_id;sensor_type;location;lat;lon;timestamp;temperature;humidity
2200;DHT22;1106;48.762;9.168;2022-09-12T00:00:13;14.40;90.90
2200;DHT22;1106;48.762;9.168;2022-09-12T00:02:41;14.40;91.10
2200;DHT22;1106;48.762;9.168;2022-09-12T00:05:08;14.30;91.30
2200;DHT22;1106;48.762;9.168;2022-09-12T00:07:35;14.20;91.30
2200;DHT22;1106;48.762;9.168;2022-09-12T00:10:02;14.20;91.40
2200;DHT22;1106;48.762;9.168;2022-09-12T00:12:31;14.20;91.50
2200;DHT22;1106;48.762;9.168;2022-09-12T00:14:58;14.30;91.60
2200;DHT22;1106;48.762;9.168;2022-09-12T00:17:24;14.20;91.60
2200;DHT22;1106;48.762;9.168;2022-09-12T00:19:51;14.20;91.60
2200;DHT22;1106;48.762;9.168;2022-09-12T00:22:18;14.20;91.70
2200;DHT22;1106;48.762;9.168;2022-09-12T00:24:45;14.20;91.90
2200;DHT22;1106;48.762;9.168;2022-09-12T00:27:12;14.20;91.90
2200;DHT22;1106;48.762;9.168;2022-09-12T00:29:41;14.10;92.00
2200;DHT22;1106;48.762;9.168;2022-09-12T00:32:08;14.10;92.10
2200;DHT22;1106;48.762;9.168;2022-09-12T00:34:35;14.10;92.10
2200;DHT22;1106;48.762;9.168;2022-09-12T00:37:02;14.10;92.10
2200;DHT22;1106;48.762;9.168;2022-09-12T00:39:29;14.10;92.20
2200;DHT22;1106;48.762;9.168;2022-09-12T00:41:56;14.10;92.30
2200;DHT22;1106;48.762;9.168;2022-09-12T00:44:46;14.10;92.20
2200;DHT22;1106;48.762;9.168;2022-09-12T00:47:17;14.10;92.20
2200;DHT22;1106;48.762;9.168;2022-09-12T00:49:47;14.10;92.10
2200;DHT22;1106;48.762;9.168;2022-09-12T00:52:20;14.10;92.00
2200;DHT22;1106;48.762;9.168;2022-09-12T00:54:51;14.10;91.80
2200;DHT22;1106;48.762;9.168;2022-09-12T00:57:20;14.10;91.90
2200;DHT22;1106;48.762;9.168;2022-09-12T00:59:56;14.00;91.60
2200;DHT22;1106;48.762;9.168;2022-09-12T01:02:24;14.00;91.70
2200;DHT22;1106;48.762;9.168;2022-09-12T01:04:52;13.90;92.00
2200;DHT22;1106;48.762;9.168;2022-09-12T01:07:20;13.90;92.30
2200;DHT22;1106;48.762;9.168;2022-09-12T01:09:47;13.90;92.30
2200;DHT22;1106;48.762;9.168;2022-09-12T01:12:15;13.90;92.10
2200;DHT22;1106;48.762;9.168;2022-09-12T01:14:43;13.80;92.20
2200;DHT22;1106;48.762;9.168;2022-09-12T01:17:13;13.80;92.40
2200;DHT22;1106;48.762;9.168;2022-09-12T01:20:24;13.80;92.40
2200;DHT22;1106;48.762;9.168;2022-09-12T01:29:13;13.80;92.10
2200;DHT22;1106;48.762;9.168;2022-09-12T01:31:50;13.70;91.80
2200;DHT22;1106;48.762;9.168;2022-09-12T01:34:23;13.70;92.00
2200;DHT22;1106;48.762;9.168;2022-09-12T01:36:59;13.60;92.00
2200;DHT22;1106;48.762;9.168;2022-09-12T01:39:31;13.60;92.00
2200;DHT22;1106;48.762;9.168;2022-09-12T01:42:07;13.60;92.10
2200;DHT22;1106;48.762;9.168;2022-09-12T01:44:38;13.60;92.10
2200;DHT22;1106;48.762;9.168;2022-09-12T01:47:13;13.60;92.30
2200;DHT22;1106;48.762;9.168;2022-09-12T01:49:49;13.60;92.30
2200;DHT22;1106;48.762;9.168;2022-09-12T01:52:21;13.50;92.50
2200;DHT22;1106;48.762;9.168;2022-09-12T01:54:54;13.50;92.70
2200;DHT22;1106;48.762;9.168;2022-09-12T01:57:27;13.50;92.80
2200;DHT22;1106;48.762;9.168;2022-09-12T01:59:58;13.50;92.80
2200;DHT22;1106;48.762;9.168;2022-09-12T02:02:32;13.50;92.90
2200;DHT22;1106;48.762;9.168;2022-09-12T02:05:05;13.50;92.80
2200;DHT22;1106;48.762;9.168;2022-09-12T02:07:36;13.50;92.60
2200;DHT22;1106;48.762;9.168;2022-09-12T02:10:08;13.50;92.80
2200;DHT22;1106;48.762;9.168;2022-09-12T02:12:40;13.40;93.10
2200;DHT22;1106;48.762;9.168;2022-09-12T02:15:10;13.40;93.10
2200;DHT22;1106;48.762;9.168;2022-09-12T02:17:42;13.40;93.20
2200;DHT22;1106;48.762;9.168;2022-09-12T02:20:14;13.50;93.10
2200;DHT22;1106;48.762;9.168;2022-09-12T02:22:43;13.50;92.90
2200;DHT22;1106;48.762;9.168;2022-09-12T02:25:12;13.50;93.00
2200;DHT22;1106;48.762;9.168;2022-09-12T02:27:44;13.40;93.20
2200;DHT22;1106;48.762;9.168;2022-09-12T02:30:13;13.40;93.30
2200;DHT22;1106;48.762;9.168;2022-09-12T02:32:48;13.50;93.00
2200;DHT22;1106;48.762;9.168;2022-09-12T02:35:24;13.50;93.00
2200;DHT22;1106;48.762;9.168;2022-09-12T02:37:59;13.40;93.20
2200;DHT22;1106;48.762;9.168;2022-09-12T02:40:28;13.40;93.30
2200;DHT22;1106;48.762;9.168;2022-09-12T02:42:56;13.40;93.60
2200;DHT22;1106;48.762;9.168;2022-09-12T02:45:23;13.30;93.80
2200;DHT22;1106;48.762;9.168;2022-09-12T02:47:56;13.30;93.80
2200;DHT22;1106;48.762;9.168;2022-09-12T02:50:25;13.40;93.70
2200;DHT22;1106;48.762;9.168;2022-09-12T02:52:52;13.30;93.70
2200;DHT22;1106;48.762;9.168;2022-09-12T02:55:24;13.30;93.90
2200;DHT22;1106;48.762;9.168;2022-09-12T02:57:51;13.30;93.90
2200;DHT22;1106;48.762;9.168;2022-09-12T03:00:18;13.40;93.70
2200;DHT22;1106;48.762;9.168;2022-09-12T03:03:03;13.40;93.80
2200;DHT22;1106;48.762;9.168;2022-09-12T03:05:39;13.30;93.80
2200;DHT22;1106;48.762;9.168;2022-09-12T03:11:14;13.40;93.70
2200;DHT22;1106;48.762;9.168;2022-09-12T03:13:54;13.40;93.80
2200;DHT22;1106;48.762;9.168;2022-09-12T03:16:30;13.40;93.80
2200;DHT22;1106;48.762;9.168;2022-09-12T03:19:05;13.40;93.80
2200;DHT22;1106;48.762;9.168;2022-09-12T03:21:43;13.40;93.60
2200;DHT22;1106;48.762;9.168;2022-09-12T03:24:17;13.40;93.80
2200;DHT22;1106;48.762;9.168;2022-09-12T03:26:48;13.30;94.00
2200;DHT22;1106;48.762;9.168;2022-09-12T03:29:17;13.30;94.00
2200;DHT22;1106;48.762;9.168;2022-09-12T03:31:50;13.30;94.10
2200;DHT22;1106;48.762;9.168;2022-09-12T03:34:19;13.30;94.10
2200;DHT22;1106;48.762;9.168;2022-09-12T03:36:46;13.30;94.00
2200;DHT22;1106;48.762;9.168;2022-09-12T03:39:14;13.30;93.90
2200;DHT22;1106;48.762;9.168;2022-09-12T03:41:41;13.30;93.60
2200;DHT22;1106;48.762;9.168;2022-09-12T03:44:08;13.20;93.80
2200;DHT22;1106;48.762;9.168;2022-09-12T03:46:35;13.20;93.70
2200;DHT22;1106;48.762;9.168;2022-09-12T03:49:02;13.20;93.50
2200;DHT22;1106;48.762;9.168;2022-09-12T03:51:30;13.20;93.50
2200;DHT22;1106;48.762;9.168;2022-09-12T03:53:57;13.20;93.50
2200;DHT22;1106;48.762;9.168;2022-09-12T03:56:24;13.20;93.60
2200;DHT22;1106;48.762;9.168;2022-09-12T03:58:50;13.10;93.60
2200;DHT22;1106;48.762;9.168;2022-09-12T04:01:18;13.20;93.70
2200;DHT22;1106;48.762;9.168;2022-09-12T04:03:47;13.10;93.80
2200;DHT22;1106;48.762;9.168;2022-09-12T04:06:17;13.10;93.90
2200;DHT22;1106;48.762;9.168;2022-09-12T04:08:49;13.10;93.90
2200;DHT22;1106;48.762;9.168;2022-09-12T04:11:18;13.10;93.90
2200;DHT22;1106;48.762;9.168;2022-09-12T04:13:46;13.00;93.90
2200;DHT22;1106;48.762;9.168;2022-09-12T04:16:14;13.00;93.90
2200;DHT22;1106;48.762;9.168;2022-09-12T04:18:42;13.00;93.80
2200;DHT22;1106;48.762;9.168;2022-09-12T04:21:11;13.00;93.90
2200;DHT22;1106;48.762;9.168;2022-09-12T04:23:38;13.00;94.10
2200;DHT22;1106;48.762;9.168;2022-09-12T04:26:07;13.00;93.90
2200;DHT22;1106;48.762;9.168;2022-09-12T04:28:36;13.00;93.70
2200;DHT22;1106;48.762;9.168;2022-09-12T04:31:04;12.90;93.70
2200;DHT22;1106;48.762;9.168;2022-09-12T04:33:32;12.90;93.40
2200;DHT22;1106;48.762;9.168;2022-09-12T04:36:03;12.90;93.20
2200;DHT22;1106;48.762;9.168;2022-09-12T04:38:34;12.90;92.70
2200;DHT22;1106;48.762;9.168;2022-09-12T04:41:11;12.80;92.30
2200;DHT22;1106;48.762;9.168;2022-09-12T04:43:38;12.80;92.20
2200;DHT22;1106;48.762;9.168;2022-09-12T04:46:05;12.70;92.30
2200;DHT22;1106;48.762;9.168;2022-09-12T04:48:32;12.60;92.80
2200;DHT22;1106;48.762;9.168;2022-09-12T04:51:06;12.60;93.00
2200;DHT22;1106;48.762;9.168;2022-09-12T04:53:33;12.70;92.50
2200;DHT22;1106;48.762;9.168;2022-09-12T04:56:01;12.60;92.30
2200;DHT22;1106;48.762;9.168;2022-09-12T04:58:30;12.50;92.60
2200;DHT22;1106;48.762;9.168;2022-09-12T05:01:05;12.50;92.90
2200;DHT22;1106;48.762;9.168;2022-09-12T05:03:33;12.50;92.90
2200;DHT22;1106;48.762;9.168;2022-09-12T05:06:01;12.50;92.70
2200;DHT22;1106;48.762;9.168;2022-09-12T05:08:29;12.50;92.60
2200;DHT22;1106;48.762;9.168;2022-09-12T05:10:56;12.60;92.30
2200;DHT22;1106;48.762;9.168;2022-09-12T05:13:30;12.60;92.20
2200;DHT22;1106;48.762;9.168;2022-09-12T05:15:57;12.60;92.20
2200;DHT22;1106;48.762;9.168;2022-09-12T05:18:24;12.60;92.40
2200;DHT22;1106;48.762;9.168;2022-09-12T05:20:52;12.60;92.50
2200;DHT22;1106;48.762;9.168;2022-09-12T05:23:20;12.70;92.10
2200;DHT22;1106;48.762;9.168;2022-09-12T05:25:48;12.80;91.80
2200;DHT22;1106;48.762;9.168;2022-09-12T05:28:17;12.70;92.10
2200;DHT22;1106;48.762;9.168;2022-09-12T05:30:46;12.70;92.30
2200;DHT22;1106;48.762;9.168;2022-09-12T05:33:13;12.80;91.70
2200;DHT22;1106;48.762;9.168;2022-09-12T05:35:40;12.80;91.60
2200;DHT22;1106;48.762;9.168;2022-09-12T05:38:10;12.90;91.30
2200;DHT22;1106;48.762;9.168;2022-09-12T05:40:39;12.90;91.60
2200;DHT22;1106;48.762;9.168;2022-09-12T05:43:06;12.90;91.80
2200;DHT22;1106;48.762;9.168;2022-09-12T05:45:33;13.00;91.50
2200;DHT22;1106;48.762;9.168;2022-09-12T05:48:02;13.10;91.30
2200;DHT22;1106;48.762;9.168;2022-09-12T05:50:29;13.10;91.20
2200;DHT22;1106;48.762;9.168;2022-09-12T05:52:56;13.20;90.90
2200;DHT22;1106;48.762;9.168;2022-09-12T05:55:22;13.30;91.00
2200;DHT22;1106;48.762;9.168;2022-09-12T05:57:49;13.40;90.80
2200;DHT22;1106;48.762;9.168;2022-09-12T06:00:16;13.50;90.90
2200;DHT22;1106;48.762;9.168;2022-09-12T06:02:50;13.60;90.50
2200;DHT22;1106;48.762;9.168;2022-09-12T06:05:18;13.70;90.30
2200;DHT22;1106;48.762;9.168;2022-09-12T06:07:45;13.80;90.30
2200;DHT22;1106;48.762;9.168;2022-09-12T06:10:12;13.80;90.10
2200;DHT22;1106;48.762;9.168;2022-09-12T06:12:40;13.90;90.10
2200;DHT22;1106;48.762;9.168;2022-09-12T06:15:08;14.00;89.80
2200;DHT22;1106;48.762;9.168;2022-09-12T06:17:36;14.10;89.70
2200;DHT22;1106;48.762;9.168;2022-09-12T06:20:03;14.10;89.30
2200;DHT22;1106;48.762;9.168;2022-09-12T06:22:31;14.20;89.30
2200;DHT22;1106;48.762;9.168;2022-09-12T06:24:58;14.40;89.00
2200;DHT22;1106;48.762;9.168;2022-09-12T06:27:25;14.40;89.00
2200;DHT22;1106;48.762;9.168;2022-09-12T06:29:52;14.50;88.80
2200;DHT22;1106;48.762;9.168;2022-09-12T06:32:19;14.60;88.70
2200;DHT22;1106;48.762;9.168;2022-09-12T06:34:46;14.70;88.40
2200;DHT22;1106;48.762;9.168;2022-09-12T06:37:15;14.80;88.20
2200;DHT22;1106;48.762;9.168;2022-09-12T06:39:43;14.90;87.90
2200;DHT22;1106;48.762;9.168;2022-09-12T06:42:10;14.90;87.90
2200;DHT22;1106;48.762;9.168;2022-09-12T06:44:39;15.00;87.90
2200;DHT22;1106;48.762;9.168;2022-09-12T06:47:06;15.10;87.60
2200;DHT22;1106;48.762;9.168;2022-09-12T06:49:33;15.30;87.20
2200;DHT22;1106;48.762;9.168;2022-09-12T06:52:00;15.40;86.80
2200;DHT22;1106;48.762;9.168;2022-09-12T06:54:27;15.50;86.50
2200;DHT22;1106;48.762;9.168;2022-09-12T06:56:55;15.70;86.10
2200;DHT22;1106;48.762;9.168;2022-09-12T06:59:22;15.70;85.80
2200;DHT22;1106;48.762;9.168;2022-09-12T07:01:49;15.90;85.70
2200;DHT22;1106;48.762;9.168;2022-09-12T07:04:19;16.00;85.40
2200;DHT22;1106;48.762;9.168;2022-09-12T07:06:49;16.00;84.80
2200;DHT22;1106;48.762;9.168;2022-09-12T07:09:19;16.10;85.00
2200;DHT22;1106;48.762;9.168;2022-09-12T07:11:46;16.10;84.70
2200;DHT22;1106;48.762;9.168;2022-09-12T07:14:14;16.20;84.40
2200;DHT22;1106;48.762;9.168;2022-09-12T07:16:41;16.40;84.10
2200;DHT22;1106;48.762;9.168;2022-09-12T07:19:09;16.50;83.80
2200;DHT22;1106;48.762;9.168;2022-09-12T07:21:36;16.70;83.30
2200;DHT22;1106;48.762;9.168;2022-09-12T07:24:05;16.70;83.00
2200;DHT22;1106;48.762;9.168;2022-09-12T07:26:33;16.90;82.70
2200;DHT22;1106;48.762;9.168;2022-09-12T07:29:00;17.00;82.30
2200;DHT22;1106;48.762;9.168;2022-09-12T07:31:28;17.00;82.10
2200;DHT22;1106;48.762;9.168;2022-09-12T07:33:55;17.10;81.70
2200;DHT22;1106;48.762;9.168;2022-09-12T07:36:23;17.30;81.30
2200;DHT22;1106;48.762;9.168;2022-09-12T07:38:54;17.30;80.60
2200;DHT22;1106;48.762;9.168;2022-09-12T07:41:23;17.30;80.60
2200;DHT22;1106;48.762;9.168;2022-09-12T07:43:51;17.40;80.50
2200;DHT22;1106;48.762;9.168;2022-09-12T07:46:19;17.50;80.30
2200;DHT22;1106;48.762;9.168;2022-09-12T07:48:50;17.60;80.00
2200;DHT22;1106;48.762;9.168;2022-09-12T07:51:17;17.70;79.50
2200;DHT22;1106;48.762;9.168;2022-09-12T07:53:45;17.90;79.20
2200;DHT22;1106;48.762;9.168;2022-09-12T07:56:12;18.00;78.80
2200;DHT22;1106;48.762;9.168;2022-09-12T07:58:40;18.10;78.00
2200;DHT22;1106;48.762;9.168;2022-09-12T08:01:09;18.20;77.80
2200;DHT22;1106;48.762;9.168;2022-09-12T08:03:37;18.30;77.10
2200;DHT22;1106;48.762;9.168;2022-09-12T08:06:07;18.40;76.40
2200;DHT22;1106;48.762;9.168;2022-09-12T08:08:35;18.50;75.90
2200;DHT22;1106;48.762;9.168;2022-09-12T08:11:06;18.50;75.90
2200;DHT22;1106;48.762;9.168;2022-09-12T08:13:35;18.60;75.60
2200;DHT22;1106;48.762;9.168;2022-09-12T08:16:04;18.80;74.80
2200;DHT22;1106;48.762;9.168;2022-09-12T08:18:32;18.80;74.70
2200;DHT22;1106;48.762;9.168;2022-09-12T08:21:01;18.80;74.60
2200;DHT22;1106;48.762;9.168;2022-09-12T08:23:30;19.00;74.50
2200;DHT22;1106;48.762;9.168;2022-09-12T08:25:57;19.10;74.10
2200;DHT22;1106;48.762;9.168;2022-09-12T08:28:24;19.20;73.70
2200;DHT22;1106;48.762;9.168;2022-09-12T08:30:51;19.00;74.30
2200;DHT22;1106;48.762;9.168;2022-09-12T08:33:19;19.20;73.80
2200;DHT22;1106;48.762;9.168;2022-09-12T08:35:46;19.30;73.60
2200;DHT22;1106;48.762;9.168;2022-09-12T08:38:13;19.30;73.60
2200;DHT22;1106;48.762;9.168;2022-09-12T08:40:46;19.40;73.60
2200;DHT22;1106;48.762;9.168;2022-09-12T08:43:27;19.50;73.20
2200;DHT22;1106;48.762;9.168;2022-09-12T08:46:01;19.60;72.70
2200;DHT22;1106;48.762;9.168;2022-09-12T08:48:33;19.70;72.40
2200;DHT22;1106;48.762;9.168;2022-09-12T08:51:00;19.70;72.40
2200;DHT22;1106;48.762;9.168;2022-09-12T08:53:30;19.80;72.10
2200;DHT22;1106;48.762;9.168;2022-09-12T08:56:03;19.90;71.40
2200;DHT22;1106;48.762;9.168;2022-09-12T08:58:38;20.00;70.80
2200;DHT22;1106;48.762;9.168;2022-09-12T09:01:08;20.10;70.30
2200;DHT22;1106;48.762;9.168;2022-09-12T09:03:54;20.10;70.10
2200;DHT22;1106;48.762;9.168;2022-09-12T09:06:48;20.20;70.20
2200;DHT22;1106;48.762;9.168;2022-09-12T09:09:22;20.40;69.50
2200;DHT22;1106;48.762;9.168;2022-09-12T09:12:02;20.40;69.20
2200;DHT22;1106;48.762;9.168;2022-09-12T09:17:26;20.60;67.40
2200;DHT22;1106;48.762;9.168;2022-09-12T09:20:00;20.80;67.40
2200;DHT22;1106;48.762;9.168;2022-09-12T09:22:36;21.00;66.60
2200;DHT22;1106;48.762;9.168;2022-09-12T09:25:06;21.10;65.80
2200;DHT22;1106;48.762;9.168;2022-09-12T09:27:42;21.30;65.80
2200;DHT22;1106;48.762;9.168;2022-09-12T09:30:15;21.40;65.00
2200;DHT22;1106;48.762;9.168;2022-09-12T09:32:44;21.50;64.80
2200;DHT22;1106;48.762;9.168;2022-09-12T09:35:16;21.60;64.80
2200;DHT22;1106;48.762;9.168;2022-09-12T09:37:54;21.70;64.60
2200;DHT22;1106;48.762;9.168;2022-09-12T09:40:28;21.90;63.90
2200;DHT22;1106;48.762;9.168;2022-09-12T09:43:05;22.00;63.10
2200;DHT22;1106;48.762;9.168;2022-09-12T09:45:36;22.00;63.90
2200;DHT22;1106;48.762;9.168;2022-09-12T09:48:15;22.20;62.70
2200;DHT22;1106;48.762;9.168;2022-09-12T09:50:43;22.40;62.10
2200;DHT22;1106;48.762;9.168;2022-09-12T09:53:26;22.50;61.00
2200;DHT22;1106;48.762;9.168;2022-09-12T09:55:59;22.50;59.40
2200;DHT22;1106;48.762;9.168;2022-09-12T09:58:30;22.60;60.20
2200;DHT22;1106;48.762;9.168;2022-09-12T10:00:58;22.80;59.30
2200;DHT22;1106;48.762;9.168;2022-09-12T10:03:30;22.80;58.70
2200;DHT22;1106;48.762;9.168;2022-09-12T10:05:59;23.00;57.20
2200;DHT22;1106;48.762;9.168;2022-09-12T10:08:28;23.10;55.90
2200;DHT22;1106;48.762;9.168;2022-09-12T10:10:58;23.10;56.70
2200;DHT22;1106;48.762;9.168;2022-09-12T10:13:39;23.10;57.20
2200;DHT22;1106;48.762;9.168;2022-09-12T10:16:18;23.30;57.30
2200;DHT22;1106;48.762;9.168;2022-09-12T10:18:47;23.50;56.60
2200;DHT22;1106;48.762;9.168;2022-09-12T10:21:33;23.70;54.80
2200;DHT22;1106;48.762;9.168;2022-09-12T10:24:06;23.70;55.50
2200;DHT22;1106;48.762;9.168;2022-09-12T10:26:40;23.90;55.50
2200;DHT22;1106;48.762;9.168;2022-09-12T10:29:14;23.90;54.90
2200;DHT22;1106;48.762;9.168;2022-09-12T10:31:49;24.00;54.40
2200;DHT22;1106;48.762;9.168;2022-09-12T10:34:22;24.00;53.70
2200;DHT22;1106;48.762;9.168;2022-09-12T10:36:52;24.00;53.30
2200;DHT22;1106;48.762;9.168;2022-09-12T10:39:20;24.00;54.00
2200;DHT22;1106;48.762;9.168;2022-09-12T10:41:47;24.10;53.90
2200;DHT22;1106;48.762;9.168;2022-09-12T10:44:22;24.20;53.50
2200;DHT22;1106;48.762;9.168;2022-09-12T10:46:50;24.30;51.20
2200;DHT22;1106;48.762;9.168;2022-09-12T10:49:23;24.20;52.20
2200;DHT22;1106;48.762;9.168;2022-09-12T10:51:51;24.30;52.60
2200;DHT22;1106;48.762;9.168;2022-09-12T10:54:20;24.50;51.50
2200;DHT22;1106;48.762;9.168;2022-09-12T10:57:04;24.50;52.10
2200;DHT22;1106;48.762;9.168;2022-09-12T10:59:52;24.40;51.30
2200;DHT22;1106;48.762;9.168;2022-09-12T11:02:27;24.50;50.70
2200;DHT22;1106;48.762;9.168;2022-09-12T11:05:01;24.60;51.00
2200;DHT22;1106;48.762;9.168;2022-09-12T11:07:42;24.70;50.80
2200;DHT22;1106;48.762;9.168;2022-09-12T11:10:23;24.80;49.40
2200;DHT22;1106;48.762;9.168;2022-09-12T11:12:58;24.90;49.10
2200;DHT22;1106;48.762;9.168;2022-09-12T11:15:52;25.00;48.40
2200;DHT22;1106;48.762;9.168;2022-09-12T11:18:37;24.70;49.90
2200;DHT22;1106;48.762;9.168;2022-09-12T11:21:26;24.70;49.30
2200;DHT22;1106;48.762;9.168;2022-09-12T11:24:12;24.60;48.40
2200;DHT22;1106;48.762;9.168;2022-09-12T11:27:04;24.70;48.90
2200;DHT22;1106;48.762;9.168;2022-09-12T11:29:46;24.90;49.20
2200;DHT22;1106;48.762;9.168;2022-09-12T11:32:50;25.00;48.40
2200;DHT22;1106;48.762;9.168;2022-09-12T11:35:22;25.10;48.80
2200;DHT22;1106;48.762;9.168;2022-09-12T11:40:52;25.20;47.70
2200;DHT22;1106;48.762;9.168;2022-09-12T11:43:27;25.20;46.80
2200;DHT22;1106;48.762;9.168;2022-09-12T11:45:59;25.40;47.20
2200;DHT22;1106;48.762;9.168;2022-09-12T11:48:37;25.40;47.70
2200;DHT22;1106;48.762;9.168;2022-09-12T11:51:16;25.50;48.70
2200;DHT22;1106;48.762;9.168;2022-09-12T11:53:45;25.60;48.80
2200;DHT22;1106;48.762;9.168;2022-09-12T11:56:16;25.60;47.70
2200;DHT22;1106;48.762;9.168;2022-09-12T11:58:48;25.70;47.50
2200;DHT22;1106;48.762;9.168;2022-09-12T12:01:18;25.70;47.00
2200;DHT22;1106;48.762;9.168;2022-09-12T12:03:48;25.70;46.40
2200;DHT22;1106;48.762;9.168;2022-09-12T12:06:20;25.70;47.00
2200;DHT22;1106;48.762;9.168;2022-09-12T12:08:48;25.70;46.80
2200;DHT22;1106;48.762;9.168;2022-09-12T12:11:26;25.70;46.00
2200;DHT22;1106;48.762;9.168;2022-09-12T12:13:57;25.60;46.70
2200;DHT22;1106;48.762;9.168;2022-09-12T12:16:27;25.60;47.00
2200;DHT22;1106;48.762;9.168;2022-09-12T12:18:58;25.60;46.90
2200;DHT22;1106;48.762;9.168;2022-09-12T12:21:43;25.60;47.10
2200;DHT22;1106;48.762;9.168;2022-09-12T12:24:14;25.60;46.30
2200;DHT22;1106;48.762;9.168;2022-09-12T12:26:52;25.60;47.70
2200;DHT22;1106;48.762;9.168;2022-09-12T12:29:38;25.60;47.00
2200;DHT22;1106;48.762;9.168;2022-09-12T12:32:29;25.60;47.20
2200;DHT22;1106;48.762;9.168;2022-09-12T12:35:36;25.20;48.20
2200;DHT22;1106;48.762;9.168;2022-09-12T12:38:24;25.40;48.70
2200;DHT22;1106;48.762;9.168;2022-09-12T12:40:52;25.60;48.40
2200;DHT22;1106;48.762;9.168;2022-09-12T12:43:36;25.60;47.60
2200;DHT22;1106;48.762;9.168;2022-09-12T12:46:11;25.50;47.80
2200;DHT22;1106;48.762;9.168;2022-09-12T12:49:04;25.50;47.80
2200;DHT22;1106;48.762;9.168;2022-09-12T12:51:54;25.60;47.30
2200;DHT22;1106;48.762;9.168;2022-09-12T12:54:49;25.70;47.70
2200;DHT22;1106;48.762;9.168;2022-09-12T12:57:23;25.80;47.50
2200;DHT22;1106;48.762;9.168;2022-09-12T12:59:54;25.90;47.10
2200;DHT22;1106;48.762;9.168;2022-09-12T13:02:26;25.90;47.10
2200;DHT22;1106;48.762;9.168;2022-09-12T13:04:58;25.70;46.00
2200;DHT22;1106;48.762;9.168;2022-09-12T13:07:31;25.70;46.50
2200;DHT22;1106;48.762;9.168;2022-09-12T13:10:00;25.60;47.20
2200;DHT22;1106;48.762;9.168;2022-09-12T13:12:30;25.60;47.20
2200;DHT22;1106;48.762;9.168;2022-09-12T13:14:58;25.60;46.00
2200;DHT22;1106;48.762;9.168;2022-09-12T13:17:33;25.50;46.90
2200;DHT22;1106;48.762;9.168;2022-09-12T13:20:06;25.30;46.10
2200;DHT22;1106;48.762;9.168;2022-09-12T13:22:43;25.40;46.60
2200;DHT22;1106;48.762;9.168;2022-09-12T13:25:26;25.50;47.40
2200;DHT22;1106;48.762;9.168;2022-09-12T13:28:05;25.60;46.70
2200;DHT22;1106;48.762;9.168;2022-09-12T13:30:34;25.80;45.70
2200;DHT22;1106;48.762;9.168;2022-09-12T13:33:10;25.90;46.20
2200;DHT22;1106;48.762;9.168;2022-09-12T13:35:47;26.00;46.70
2200;DHT22;1106;48.762;9.168;2022-09-12T13:38:25;26.10;44.90
2200;DHT22;1106;48.762;9.168;2022-09-12T13:41:07;26.10;44.50
2200;DHT22;1106;48.762;9.168;2022-09-12T13:43:41;26.10;44.50
2200;DHT22;1106;48.762;9.168;2022-09-12T13:46:09;26.10;45.40
2200;DHT22;1106;48.762;9.168;2022-09-12T13:48:39;26.00;45.70
2200;DHT22;1106;48.762;9.168;2022-09-12T13:51:12;26.00;44.20
2200;DHT22;1106;48.762;9.168;2022-09-12T13:53:47;25.90;44.80
2200;DHT22;1106;48.762;9.168;2022-09-12T13:56:16;26.10;45.00
2200;DHT22;1106;48.762;9.168;2022-09-12T13:58:51;26.10;44.80
2200;DHT22;1106;48.762;9.168;2022-09-12T14:01:20;26.10;46.00
2200;DHT22;1106;48.762;9.168;2022-09-12T14:03:49;26.20;44.80
2200;DHT22;1106;48.762;9.168;2022-09-12T14:06:41;26.10;45.30
2200;DHT22;1106;48.762;9.168;2022-09-12T14:09:14;26.10;45.40
2200;DHT22;1106;48.762;9.168;2022-09-12T14:11:42;26.20;44.80
2200;DHT22;1106;48.762;9.168;2022-09-12T14:14:18;26.20;45.10
2200;DHT22;1106;48.762;9.168;2022-09-12T14:16:46;26.20;44.60
2200;DHT22;1106;48.762;9.168;2022-09-12T14:19:14;26.10;46.60
2200;DHT22;1106;48.762;9.168;2022-09-12T14:21:43;26.00;46.10
2200;DHT22;1106;48.762;9.168;2022-09-12T14:24:12;26.00;45.50
2200;DHT22;1106;48.762;9.168;2022-09-12T14:26:41;26.00;45.60
2200;DHT22;1106;48.762;9.168;2022-09-12T14:29:13;26.00;46.10
2200;DHT22;1106;48.762;9.168;2022-09-12T14:31:41;26.00;47.80
2200;DHT22;1106;48.762;9.168;2022-09-12T14:34:11;26.10;46.00
2200;DHT22;1106;48.762;9.168;2022-09-12T14:36:42;26.20;44.50
2200;DHT22;1106;48.762;9.168;2022-09-12T14:39:21;26.10;45.30
2200;DHT22;1106;48.762;9.168;2022-09-12T14:41:50;26.20;44.80
2200;DHT22;1106;48.762;9.168;2022-09-12T14:44:21;26.00;45.30
2200;DHT22;1106;48.762;9.168;2022-09-12T14:46:49;26.20;45.00
2200;DHT22;1106;48.762;9.168;2022-09-12T14:49:19;26.30;45.40
2200;DHT22;1106;48.762;9.168;2022-09-12T14:51:57;26.30;44.90
2200;DHT22;1106;48.762;9.168;2022-09-12T14:54:37;26.40;44.50
2200;DHT22;1106;48.762;9.168;2022-09-12T14:57:31;26.50;44.00
2200;DHT22;1106;48.762;9.168;2022-09-12T15:00:17;26.50;44.10
2200;DHT22;1106;48.762;9.168;2022-09-12T15:02:46;26.50;44.20
2200;DHT22;1106;48.762;9.168;2022-09-12T15:05:22;26.50;43.90
2200;DHT22;1106;48.762;9.168;2022-09-12T15:07:57;26.50;43.50
2200;DHT22;1106;48.762;9.168;2022-09-12T15:10:28;26.50;44.00
2200;DHT22;1106;48.762;9.168;2022-09-12T15:13:17;26.60;44.10
2200;DHT22;1106;48.762;9.168;2022-09-12T15:15:45;26.70;43.60
2200;DHT22;1106;48.762;9.168;2022-09-12T15:18:13;26.70;43.30
2200;DHT22;1106;48.762;9.168;2022-09-12T15:20:41;26.60;43.00
2200;DHT22;1106;48.762;9.168;2022-09-12T15:23:14;26.60;43.30
2200;DHT22;1106;48.762;9.168;2022-09-12T15:25:44;26.60;43.50
2200;DHT22;1106;48.762;9.168;2022-09-12T15:28:19;26.80;43.80
2200;DHT22;1106;48.762;9.168;2022-09-12T15:30:47;26.80;44.20
2200;DHT22;1106;48.762;9.168;2022-09-12T15:33:16;26.90;44.10
2200;DHT22;1106;48.762;9.168;2022-09-12T15:35:44;26.90;43.90
2200;DHT22;1106;48.762;9.168;2022-09-12T15:38:13;26.90;44.00
2200;DHT22;1106;48.762;9.168;2022-09-12T15:40:40;26.80;43.40
2200;DHT22;1106;48.762;9.168;2022-09-12T15:43:10;26.70;43.50
2200;DHT22;1106;48.762;9.168;2022-09-12T15:45:37;26.70;43.90
2200;DHT22;1106;48.762;9.168;2022-09-12T15:48:04;26.70;44.50
2200;DHT22;1106;48.762;9.168;2022-09-12T15:50:31;26.80;44.70
2200;DHT22;1106;48.762;9.168;2022-09-12T15:52:58;26.80;44.60
2200;DHT22;1106;48.762;9.168;2022-09-12T15:55:29;26.80;44.70
2200;DHT22;1106;48.762;9.168;2022-09-12T15:57:56;26.90;44.80
2200;DHT22;1106;48.762;9.168;2022-09-12T16:00:25;26.90;44.90
2200;DHT22;1106;48.762;9.168;2022-09-12T16:02:52;26.90;44.90
2200;DHT22;1106;48.762;9.168;2022-09-12T16:05:21;27.00;45.00
2200;DHT22;1106;48.762;9.168;2022-09-12T16:07:50;27.00;45.10
2200;DHT22;1106;48.762;9.168;2022-09-12T16:10:20;27.10;45.30
2200;DHT22;1106;48.762;9.168;2022-09-12T16:12:47;27.10;45.70
2200;DHT22;1106;48.762;9.168;2022-09-12T16:15:18;27.20;45.50
2200;DHT22;1106;48.762;9.168;2022-09-12T16:17:47;27.20;45.50
2200;DHT22;1106;48.762;9.168;2022-09-12T16:20:14;27.10;45.90
2200;DHT22;1106;48.762;9.168;2022-09-12T16:22:41;27.10;45.60
2200;DHT22;1106;48.762;9.168;2022-09-12T16:25:09;27.10;45.80
2200;DHT22;1106;48.762;9.168;2022-09-12T16:27:36;27.10;45.90
2200;DHT22;1106;48.762;9.168;2022-09-12T16:30:03;27.10;46.10
2200;DHT22;1106;48.762;9.168;2022-09-12T16:32:30;27.00;46.40
2200;DHT22;1106;48.762;9.168;2022-09-12T16:34:59;27.00;46.40
2200;DHT22;1106;48.762;9.168;2022-09-12T16:37:28;26.90;46.40
2200;DHT22;1106;48.762;9.168;2022-09-12T16:39:57;26.90;46.30
2200;DHT22;1106;48.762;9.168;2022-09-12T16:42:28;26.90;46.50
2200;DHT22;1106;48.762;9.168;2022-09-12T16:44:59;26.90;46.50